sensor_id;sensor_type;location;lat;lon;timestamp;temperature;humidity
11089;DHT22;5598;48.648;8.908;2023-03-23T00:01:24;12.10;85.20
11089;DHT22;5598;48.648;8.908;2023-03-23T00:03:53;12.00;85.10
11089;DHT22;5598;48.648;8.908;2023-03-23T00:06:23;12.00;84.50
11089;DHT22;5598;48.648;8.908;2023-03-23T00:08:52;11.90;84.70
11089;DHT22;5598;48.648;8.908;2023-03-23T00:11:25;11.90;84.60
11089;DHT22;5598;48.648;8.908;2023-03-23T00:13:56;11.80;85.40
11089;DHT22;5598;48.648;8.908;2023-03-23T00:16:28;11.80;84.60
11089;DHT22;5598;48.648;8.908;2023-03-23T00:18:57;11.80;85.10
11089;DHT22;5598;48.648;8.908;2023-03-23T00:21:25;11.80;85.40
11089;DHT22;5598;48.648;8.908;2023-03-23T00:23:58;11.80;85.20
11089;DHT22;5598;48.648;8.908;2023-03-23T00:26:26;11.80;85.00
11089;DHT22;5598;48.648;8.908;2023-03-23T00:28:55;11.80;85.30
11089;DHT22;5598;48.648;8.908;2023-03-23T00:31:22;11.80;84.90
11089;DHT22;5598;48.648;8.908;2023-03-23T00:33:48;11.90;84.90
11089;DHT22;5598;48.648;8.908;2023-03-23T00:36:15;12.00;84.40
11089;DHT22;5598;48.648;8.908;2023-03-23T00:38:43;12.00;83.90
11089;DHT22;5598;48.648;8.908;2023-03-23T00:41:12;12.10;83.90
11089;DHT22;5598;48.648;8.908;2023-03-23T00:43:42;12.20;83.60
11089;DHT22;5598;48.648;8.908;2023-03-23T00:46:09;12.20;83.20
11089;DHT22;5598;48.648;8.908;2023-03-23T00:48:37;12.20;83.00
11089;DHT22;5598;48.648;8.908;2023-03-23T00:51:06;12.20;82.60
11089;DHT22;5598;48.648;8.908;2023-03-23T00:53:37;12.20;82.90
11089;DHT22;5598;48.648;8.908;2023-03-23T00:56:05;12.20;83.40
11089;DHT22;5598;48.648;8.908;2023-03-23T00:58:31;12.10;83.00
11089;DHT22;5598;48.648;8.908;2023-03-23T01:01:00;12.10;83.20
11089;DHT22;5598;48.648;8.908;2023-03-23T01:03:27;12.10;83.60
11089;DHT22;5598;48.648;8.908;2023-03-23T01:05:55;12.10;84.00
11089;DHT22;5598;48.648;8.908;2023-03-23T01:08:23;12.10;84.00
11089;DHT22;5598;48.648;8.908;2023-03-23T01:10:50;12.00;84.10
11089;DHT22;5598;48.648;8.908;2023-03-23T01:13:19;11.90;85.40
11089;DHT22;5598;48.648;8.908;2023-03-23T01:15:48;11.90;84.80
11089;DHT22;5598;48.648;8.908;2023-03-23T01:18:16;12.00;85.40
11089;DHT22;5598;48.648;8.908;2023-03-23T01:20:43;11.90;85.10
11089;DHT22;5598;48.648;8.908;2023-03-23T01:23:10;11.80;85.10
11089;DHT22;5598;48.648;8.908;2023-03-23T01:25:36;11.80;84.60
11089;DHT22;5598;48.648;8.908;2023-03-23T01:28:03;11.80;85.50
11089;DHT22;5598;48.648;8.908;2023-03-23T01:30:31;11.70;84.70
11089;DHT22;5598;48.648;8.908;2023-03-23T01:32:57;11.70;84.60
11089;DHT22;5598;48.648;8.908;2023-03-23T01:35:25;11.70;83.70
11089;DHT22;5598;48.648;8.908;2023-03-23T01:37:53;11.80;83.90
11089;DHT22;5598;48.648;8.908;2023-03-23T01:40:20;11.80;83.30
11089;DHT22;5598;48.648;8.908;2023-03-23T01:42:47;11.80;83.20
11089;DHT22;5598;48.648;8.908;2023-03-23T01:45:27;11.80;83.80
11089;DHT22;5598;48.648;8.908;2023-03-23T01:47:59;11.80;84.00
11089;DHT22;5598;48.648;8.908;2023-03-23T01:50:31;11.80;84.80
11089;DHT22;5598;48.648;8.908;2023-03-23T01:53:02;11.70;84.90
11089;DHT22;5598;48.648;8.908;2023-03-23T01:55:30;11.70;85.80
11089;DHT22;5598;48.648;8.908;2023-03-23T01:57:57;11.80;86.00
11089;DHT22;5598;48.648;8.908;2023-03-23T02:00:24;11.70;86.80
11089;DHT22;5598;48.648;8.908;2023-03-23T02:02:53;11.70;87.50
11089;DHT22;5598;48.648;8.908;2023-03-23T02:05:26;11.60;87.20
11089;DHT22;5598;48.648;8.908;2023-03-23T02:07:57;11.50;87.40
11089;DHT22;5598;48.648;8.908;2023-03-23T02:10:32;11.40;88.10
11089;DHT22;5598;48.648;8.908;2023-03-23T02:13:01;11.30;88.40
11089;DHT22;5598;48.648;8.908;2023-03-23T02:15:36;11.20;88.60
11089;DHT22;5598;48.648;8.908;2023-03-23T02:18:08;11.10;89.70
11089;DHT22;5598;48.648;8.908;2023-03-23T02:21:14;11.00;89.10
11089;DHT22;5598;48.648;8.908;2023-03-23T02:26:50;11.00;90.00
11089;DHT22;5598;48.648;8.908;2023-03-23T02:29:36;10.90;89.90
11089;DHT22;5598;48.648;8.908;2023-03-23T02:32:16;10.90;90.00
11089;DHT22;5598;48.648;8.908;2023-03-23T02:34:50;10.90;90.20
11089;DHT22;5598;48.648;8.908;2023-03-23T02:37:22;10.80;90.20
11089;DHT22;5598;48.648;8.908;2023-03-23T02:39:53;10.80;90.30
11089;DHT22;5598;48.648;8.908;2023-03-23T02:42:26;10.70;90.40
11089;DHT22;5598;48.648;8.908;2023-03-23T02:44:53;10.70;90.50
11089;DHT22;5598;48.648;8.908;2023-03-23T02:47:23;10.70;90.60
11089;DHT22;5598;48.648;8.908;2023-03-23T02:49:54;10.70;90.50
11089;DHT22;5598;48.648;8.908;2023-03-23T02:52:24;10.70;90.30
11089;DHT22;5598;48.648;8.908;2023-03-23T02:54:53;10.70;90.30
11089;DHT22;5598;48.648;8.908;2023-03-23T02:57:22;10.70;90.10
11089;DHT22;5598;48.648;8.908;2023-03-23T02:59:50;10.80;90.60
11089;DHT22;5598;48.648;8.908;2023-03-23T03:02:17;10.80;90.50
11089;DHT22;5598;48.648;8.908;2023-03-23T03:04:50;10.80;90.30
11089;DHT22;5598;48.648;8.908;2023-03-23T03:07:57;10.80;90.30
11089;DHT22;5598;48.648;8.908;2023-03-23T03:10:27;10.90;90.10
11089;DHT22;5598;48.648;8.908;2023-03-23T03:13:01;10.90;90.10
11089;DHT22;5598;48.648;8.908;2023-03-23T03:15:33;11.00;90.00
11089;DHT22;5598;48.648;8.908;2023-03-23T03:18:07;11.00;90.10
11089;DHT22;5598;48.648;8.908;2023-03-23T03:20:40;11.00;89.80
11089;DHT22;5598;48.648;8.908;2023-03-23T03:23:10;11.10;90.00
11089;DHT22;5598;48.648;8.908;2023-03-23T03:25:39;11.10;90.00
11089;DHT22;5598;48.648;8.908;2023-03-23T03:28:08;11.10;90.00
11089;DHT22;5598;48.648;8.908;2023-03-23T03:30:36;11.10;90.00
11089;DHT22;5598;48.648;8.908;2023-03-23T03:33:05;11.20;90.00
11089;DHT22;5598;48.648;8.908;2023-03-23T03:35:36;11.20;90.10
11089;DHT22;5598;48.648;8.908;2023-03-23T03:38:09;11.10;90.10
11089;DHT22;5598;48.648;8.908;2023-03-23T03:40:37;11.10;90.00
11089;DHT22;5598;48.648;8.908;2023-03-23T03:43:04;11.20;90.30
11089;DHT22;5598;48.648;8.908;2023-03-23T03:45:32;11.10;90.30
11089;DHT22;5598;48.648;8.908;2023-03-23T03:47:59;11.10;90.30
11089;DHT22;5598;48.648;8.908;2023-03-23T03:50:27;11.10;90.60
11089;DHT22;5598;48.648;8.908;2023-03-23T03:52:53;11.10;90.40
11089;DHT22;5598;48.648;8.908;2023-03-23T03:55:21;11.10;90.40
11089;DHT22;5598;48.648;8.908;2023-03-23T03:57:48;11.10;90.50
11089;DHT22;5598;48.648;8.908;2023-03-23T04:00:16;11.00;90.40
11089;DHT22;5598;48.648;8.908;2023-03-23T04:02:45;11.00;90.40
11089;DHT22;5598;48.648;8.908;2023-03-23T04:05:17;11.00;90.40
11089;DHT22;5598;48.648;8.908;2023-03-23T04:07:44;11.10;90.50
11089;DHT22;5598;48.648;8.908;2023-03-23T04:10:15;11.10;90.40
11089;DHT22;5598;48.648;8.908;2023-03-23T04:12:43;11.20;90.20
11089;DHT22;5598;48.648;8.908;2023-03-23T04:15:10;11.20;90.20
11089;DHT22;5598;48.648;8.908;2023-03-23T04:17:37;11.20;90.20
11089;DHT22;5598;48.648;8.908;2023-03-23T04:20:07;11.30;90.10
11089;DHT22;5598;48.648;8.908;2023-03-23T04:22:40;11.20;90.10
11089;DHT22;5598;48.648;8.908;2023-03-23T04:25:10;11.20;90.20
11089;DHT22;5598;48.648;8.908;2023-03-23T04:27:38;11.20;90.40
11089;DHT22;5598;48.648;8.908;2023-03-23T04:30:11;11.20;90.50
11089;DHT22;5598;48.648;8.908;2023-03-23T04:32:39;11.10;90.50
11089;DHT22;5598;48.648;8.908;2023-03-23T04:35:09;11.10;90.50
11089;DHT22;5598;48.648;8.908;2023-03-23T04:37:37;11.10;90.50
11089;DHT22;5598;48.648;8.908;2023-03-23T04:40:05;11.10;90.50
11089;DHT22;5598;48.648;8.908;2023-03-23T04:42:37;11.10;90.60
11089;DHT22;5598;48.648;8.908;2023-03-23T04:45:06;11.10;90.50
11089;DHT22;5598;48.648;8.908;2023-03-23T04:47:36;11.10;90.60
11089;DHT22;5598;48.648;8.908;2023-03-23T04:50:07;11.10;90.60
11089;DHT22;5598;48.648;8.908;2023-03-23T04:52:35;11.10;90.70
11089;DHT22;5598;48.648;8.908;2023-03-23T04:55:04;11.20;90.70
11089;DHT22;5598;48.648;8.908;2023-03-23T04:57:31;11.20;90.50
11089;DHT22;5598;48.648;8.908;2023-03-23T04:59:58;11.20;90.50
11089;DHT22;5598;48.648;8.908;2023-03-23T05:02:25;11.20;90.70
11089;DHT22;5598;48.648;8.908;2023-03-23T05:04:57;11.30;90.60
11089;DHT22;5598;48.648;8.908;2023-03-23T05:07:24;11.30;90.60
11089;DHT22;5598;48.648;8.908;2023-03-23T05:09:51;11.30;90.20
11089;DHT22;5598;48.648;8.908;2023-03-23T05:12:18;11.40;90.30
11089;DHT22;5598;48.648;8.908;2023-03-23T05:14:45;11.40;90.10
11089;DHT22;5598;48.648;8.908;2023-03-23T05:17:12;11.50;90.10
11089;DHT22;5598;48.648;8.908;2023-03-23T05:19:44;11.50;90.00
11089;DHT22;5598;48.648;8.908;2023-03-23T05:22:14;11.50;90.00
11089;DHT22;5598;48.648;8.908;2023-03-23T05:24:41;11.60;89.90
11089;DHT22;5598;48.648;8.908;2023-03-23T05:27:08;11.60;89.70
11089;DHT22;5598;48.648;8.908;2023-03-23T05:29:35;11.60;89.50
11089;DHT22;5598;48.648;8.908;2023-03-23T05:32:02;11.60;89.70
11089;DHT22;5598;48.648;8.908;2023-03-23T05:34:30;11.60;89.20
11089;DHT22;5598;48.648;8.908;2023-03-23T05:36:58;11.70;89.20
11089;DHT22;5598;48.648;8.908;2023-03-23T05:39:28;11.70;89.20
11089;DHT22;5598;48.648;8.908;2023-03-23T05:41:55;11.70;89.40
11089;DHT22;5598;48.648;8.908;2023-03-23T05:44:22;11.80;89.30
11089;DHT22;5598;48.648;8.908;2023-03-23T05:46:49;11.80;89.30
11089;DHT22;5598;48.648;8.908;2023-03-23T05:49:16;11.90;89.10
11089;DHT22;5598;48.648;8.908;2023-03-23T05:51:43;11.80;89.30
11089;DHT22;5598;48.648;8.908;2023-03-23T05:54:11;11.80;89.00
11089;DHT22;5598;48.648;8.908;2023-03-23T05:56:39;11.90;89.40
11089;DHT22;5598;48.648;8.908;2023-03-23T05:59:06;11.90;89.40
11089;DHT22;5598;48.648;8.908;2023-03-23T06:01:33;11.90;89.40
11089;DHT22;5598;48.648;8.908;2023-03-23T06:04:00;11.90;89.80
11089;DHT22;5598;48.648;8.908;2023-03-23T06:06:28;11.90;89.40
11089;DHT22;5598;48.648;8.908;2023-03-23T06:08:56;11.90;89.90
11089;DHT22;5598;48.648;8.908;2023-03-23T06:11:23;12.00;89.90
11089;DHT22;5598;48.648;8.908;2023-03-23T06:13:52;12.00;90.10
11089;DHT22;5598;48.648;8.908;2023-03-23T06:16:19;12.10;89.70
11089;DHT22;5598;48.648;8.908;2023-03-23T06:18:46;12.10;89.20
11089;DHT22;5598;48.648;8.908;2023-03-23T06:21:13;12.10;89.70
11089;DHT22;5598;48.648;8.908;2023-03-23T06:23:40;12.10;89.30
11089;DHT22;5598;48.648;8.908;2023-03-23T06:26:08;12.20;89.20
11089;DHT22;5598;48.648;8.908;2023-03-23T06:28:36;12.30;89.00
11089;DHT22;5598;48.648;8.908;2023-03-23T06:31:05;12.30;88.90
11089;DHT22;5598;48.648;8.908;2023-03-23T06:33:33;12.30;89.00
11089;DHT22;5598;48.648;8.908;2023-03-23T06:36:01;12.30;88.80
11089;DHT22;5598;48.648;8.908;2023-03-23T06:38:28;12.40;88.90
11089;DHT22;5598;48.648;8.908;2023-03-23T06:40:55;12.40;88.70
11089;DHT22;5598;48.648;8.908;2023-03-23T06:43:23;12.40;88.70
11089;DHT22;5598;48.648;8.908;2023-03-23T06:45:51;12.40;88.60
11089;DHT22;5598;48.648;8.908;2023-03-23T06:48:19;12.50;88.60
11089;DHT22;5598;48.648;8.908;2023-03-23T06:50:46;12.50;89.30
11089;DHT22;5598;48.648;8.908;2023-03-23T06:53:13;12.60;89.00
11089;DHT22;5598;48.648;8.908;2023-03-23T06:55:42;12.60;88.80
11089;DHT22;5598;48.648;8.908;2023-03-23T06:58:09;12.60;88.80
11089;DHT22;5598;48.648;8.908;2023-03-23T07:00:36;12.60;88.50
11089;DHT22;5598;48.648;8.908;2023-03-23T07:03:02;12.60;88.50
11089;DHT22;5598;48.648;8.908;2023-03-23T07:05:32;12.60;88.80
11089;DHT22;5598;48.648;8.908;2023-03-23T07:07:59;12.60;88.50
11089;DHT22;5598;48.648;8.908;2023-03-23T07:10:26;12.60;88.90
11089;DHT22;5598;48.648;8.908;2023-03-23T07:12:53;12.60;88.70
11089;DHT22;5598;48.648;8.908;2023-03-23T07:15:20;12.60;88.60
11089;DHT22;5598;48.648;8.908;2023-03-23T07:17:48;12.70;88.80
11089;DHT22;5598;48.648;8.908;2023-03-23T07:20:14;12.70;88.70
11089;DHT22;5598;48.648;8.908;2023-03-23T07:22:42;12.60;89.30
11089;DHT22;5598;48.648;8.908;2023-03-23T07:25:09;12.60;89.40
11089;DHT22;5598;48.648;8.908;2023-03-23T07:27:37;12.60;89.50
11089;DHT22;5598;48.648;8.908;2023-03-23T07:30:05;12.50;89.40
11089;DHT22;5598;48.648;8.908;2023-03-23T07:32:32;12.60;89.90
11089;DHT22;5598;48.648;8.908;2023-03-23T07:35:00;12.50;90.10
11089;DHT22;5598;48.648;8.908;2023-03-23T07:37:27;12.50;90.20
11089;DHT22;5598;48.648;8.908;2023-03-23T07:39:55;12.60;90.20
11089;DHT22;5598;48.648;8.908;2023-03-23T07:42:23;12.60;90.30
11089;DHT22;5598;48.648;8.908;2023-03-23T07:44:49;12.70;90.30
11089;DHT22;5598;48.648;8.908;2023-03-23T07:47:16;12.70;90.10
11089;DHT22;5598;48.648;8.908;2023-03-23T07:49:44;12.80;90.10
11089;DHT22;5598;48.648;8.908;2023-03-23T07:52:11;12.90;90.20
11089;DHT22;5598;48.648;8.908;2023-03-23T07:54:38;12.90;90.10
11089;DHT22;5598;48.648;8.908;2023-03-23T07:57:06;13.00;90.20
11089;DHT22;5598;48.648;8.908;2023-03-23T07:59:33;13.10;90.20
11089;DHT22;5598;48.648;8.908;2023-03-23T08:02:00;13.20;90.10
11089;DHT22;5598;48.648;8.908;2023-03-23T08:04:27;13.20;90.40
11089;DHT22;5598;48.648;8.908;2023-03-23T08:06:54;13.30;90.50
11089;DHT22;5598;48.648;8.908;2023-03-23T08:09:21;13.30;90.80
11089;DHT22;5598;48.648;8.908;2023-03-23T08:11:48;13.40;91.00
11089;DHT22;5598;48.648;8.908;2023-03-23T08:14:16;13.40;91.00
11089;DHT22;5598;48.648;8.908;2023-03-23T08:16:43;13.60;91.00
11089;DHT22;5598;48.648;8.908;2023-03-23T08:19:10;13.70;91.00
11089;DHT22;5598;48.648;8.908;2023-03-23T08:21:37;13.80;90.90
11089;DHT22;5598;48.648;8.908;2023-03-23T08:24:04;13.80;91.00
11089;DHT22;5598;48.648;8.908;2023-03-23T08:26:32;13.90;90.90
11089;DHT22;5598;48.648;8.908;2023-03-23T08:28:58;13.90;91.10
11089;DHT22;5598;48.648;8.908;2023-03-23T08:31:26;13.90;91.00
11089;DHT22;5598;48.648;8.908;2023-03-23T08:33:53;14.00;91.20
11089;DHT22;5598;48.648;8.908;2023-03-23T08:36:22;13.90;91.20
11089;DHT22;5598;48.648;8.908;2023-03-23T08:38:49;13.80;91.10
11089;DHT22;5598;48.648;8.908;2023-03-23T08:41:17;13.70;91.10
11089;DHT22;5598;48.648;8.908;2023-03-23T08:43:44;13.70;91.40
11089;DHT22;5598;48.648;8.908;2023-03-23T08:46:11;13.80;91.50
11089;DHT22;5598;48.648;8.908;2023-03-23T08:48:40;13.90;91.70
11089;DHT22;5598;48.648;8.908;2023-03-23T08:51:07;13.90;91.50
11089;DHT22;5598;48.648;8.908;2023-03-23T08:53:34;14.00;91.90
11089;DHT22;5598;48.648;8.908;2023-03-23T08:56:04;14.00;91.60
11089;DHT22;5598;48.648;8.908;2023-03-23T08:58:31;14.10;91.70
11089;DHT22;5598;48.648;8.908;2023-03-23T09:00:58;14.10;91.60
11089;DHT22;5598;48.648;8.908;2023-03-23T09:03:25;14.10;91.60
11089;DHT22;5598;48.648;8.908;2023-03-23T09:05:53;14.10;91.70
11089;DHT22;5598;48.648;8.908;2023-03-23T09:08:20;14.20;91.60
11089;DHT22;5598;48.648;8.908;2023-03-23T09:10:47;14.20;91.60
11089;DHT22;5598;48.648;8.908;2023-03-23T09:13:15;14.20;91.50
11089;DHT22;5598;48.648;8.908;2023-03-23T09:15:42;14.20;91.70
11089;DHT22;5598;48.648;8.908;2023-03-23T09:18:09;14.10;91.20
11089;DHT22;5598;48.648;8.908;2023-03-23T09:20:36;14.20;91.50
11089;DHT22;5598;48.648;8.908;2023-03-23T09:23:04;14.10;91.50
11089;DHT22;5598;48.648;8.908;2023-03-23T09:25:32;14.10;91.10
11089;DHT22;5598;48.648;8.908;2023-03-23T09:27:59;14.00;91.10
11089;DHT22;5598;48.648;8.908;2023-03-23T09:30:28;14.00;91.40
11089;DHT22;5598;48.648;8.908;2023-03-23T09:32:56;13.90;91.40
11089;DHT22;5598;48.648;8.908;2023-03-23T09:35:23;13.80;91.80
11089;DHT22;5598;48.648;8.908;2023-03-23T09:37:52;13.80;91.80
11089;DHT22;5598;48.648;8.908;2023-03-23T09:40:22;13.90;92.00
11089;DHT22;5598;48.648;8.908;2023-03-23T09:43:06;13.90;91.80
11089;DHT22;5598;48.648;8.908;2023-03-23T09:45:39;13.90;91.70
11089;DHT22;5598;48.648;8.908;2023-03-23T09:48:27;13.90;91.80
11089;DHT22;5598;48.648;8.908;2023-03-23T09:51:02;14.00;92.20
11089;DHT22;5598;48.648;8.908;2023-03-23T09:53:36;14.20;92.00
11089;DHT22;5598;48.648;8.908;2023-03-23T09:56:10;14.50;91.60
11089;DHT22;5598;48.648;8.908;2023-03-23T09:58:45;14.80;91.80
11089;DHT22;5598;48.648;8.908;2023-03-23T10:01:17;15.40;91.40
11089;DHT22;5598;48.648;8.908;2023-03-23T10:03:46;15.70;90.70
11089;DHT22;5598;48.648;8.908;2023-03-23T10:06:15;16.50;89.80
11089;DHT22;5598;48.648;8.908;2023-03-23T10:08:45;16.30;89.10
11089;DHT22;5598;48.648;8.908;2023-03-23T10:11:18;15.60;90.20
11089;DHT22;5598;48.648;8.908;2023-03-23T10:13:59;15.20;90.80
11089;DHT22;5598;48.648;8.908;2023-03-23T10:16:33;15.20;90.90
11089;DHT22;5598;48.648;8.908;2023-03-23T10:19:12;15.30;91.60
11089;DHT22;5598;48.648;8.908;2023-03-23T10:21:42;15.60;91.50
11089;DHT22;5598;48.648;8.908;2023-03-23T10:24:15;15.80;91.10
11089;DHT22;5598;48.648;8.908;2023-03-23T10:26:48;15.90;90.90
11089;DHT22;5598;48.648;8.908;2023-03-23T10:29:19;16.50;90.80
11089;DHT22;5598;48.648;8.908;2023-03-23T10:31:51;16.70;90.10
11089;DHT22;5598;48.648;8.908;2023-03-23T10:34:23;16.80;89.60
11089;DHT22;5598;48.648;8.908;2023-03-23T10:36:56;16.60;89.40
11089;DHT22;5598;48.648;8.908;2023-03-23T10:39:29;16.40;89.20
11089;DHT22;5598;48.648;8.908;2023-03-23T10:42:01;16.40;90.40
11089;DHT22;5598;48.648;8.908;2023-03-23T10:44:33;16.70;88.90
11089;DHT22;5598;48.648;8.908;2023-03-23T10:47:02;17.30;89.30
11089;DHT22;5598;48.648;8.908;2023-03-23T10:49:34;17.80;86.00
11089;DHT22;5598;48.648;8.908;2023-03-23T10:52:09;17.50;86.60
11089;DHT22;5598;48.648;8.908;2023-03-23T10:54:45;17.40;87.60
11089;DHT22;5598;48.648;8.908;2023-03-23T10:57:21;17.30;86.90
11089;DHT22;5598;48.648;8.908;2023-03-23T10:59:49;16.90;87.80
11089;DHT22;5598;48.648;8.908;2023-03-23T11:02:18;16.70;88.90
11089;DHT22;5598;48.648;8.908;2023-03-23T11:04:53;16.40;89.50
11089;DHT22;5598;48.648;8.908;2023-03-23T11:07:27;16.10;90.10
11089;DHT22;5598;48.648;8.908;2023-03-23T11:09:56;15.90;90.50
11089;DHT22;5598;48.648;8.908;2023-03-23T11:12:25;15.60;90.40
11089;DHT22;5598;48.648;8.908;2023-03-23T11:14:52;15.50;91.00
11089;DHT22;5598;48.648;8.908;2023-03-23T11:17:29;15.40;91.00
11089;DHT22;5598;48.648;8.908;2023-03-23T11:19:56;15.40;90.70
11089;DHT22;5598;48.648;8.908;2023-03-23T11:22:26;15.40;90.90
11089;DHT22;5598;48.648;8.908;2023-03-23T11:24:55;15.50;90.60
11089;DHT22;5598;48.648;8.908;2023-03-23T11:27:24;15.50;90.70
11089;DHT22;5598;48.648;8.908;2023-03-23T11:29:55;15.60;90.50
11089;DHT22;5598;48.648;8.908;2023-03-23T11:32:25;15.80;90.60
11089;DHT22;5598;48.648;8.908;2023-03-23T11:34:56;15.80;89.50
11089;DHT22;5598;48.648;8.908;2023-03-23T11:37:28;15.70;89.40
11089;DHT22;5598;48.648;8.908;2023-03-23T11:39:58;15.60;88.90
11089;DHT22;5598;48.648;8.908;2023-03-23T11:42:36;15.60;89.80
11089;DHT22;5598;48.648;8.908;2023-03-23T11:45:15;15.50;89.10
11089;DHT22;5598;48.648;8.908;2023-03-23T11:47:57;15.50;90.40
11089;DHT22;5598;48.648;8.908;2023-03-23T11:50:27;15.50;90.30
11089;DHT22;5598;48.648;8.908;2023-03-23T11:53:00;15.60;90.00
11089;DHT22;5598;48.648;8.908;2023-03-23T11:55:33;15.70;90.10
11089;DHT22;5598;48.648;8.908;2023-03-23T11:58:17;15.80;88.50
11089;DHT22;5598;48.648;8.908;2023-03-23T12:00:49;15.80;88.10
11089;DHT22;5598;48.648;8.908;2023-03-23T12:03:45;15.80;87.90
11089;DHT22;5598;48.648;8.908;2023-03-23T12:06:19;15.70;86.80
11089;DHT22;5598;48.648;8.908;2023-03-23T12:08:57;15.70;88.30
11089;DHT22;5598;48.648;8.908;2023-03-23T12:11:31;15.70;86.60
11089;DHT22;5598;48.648;8.908;2023-03-23T12:14:14;15.70;86.80
11089;DHT22;5598;48.648;8.908;2023-03-23T12:16:53;15.70;87.50
11089;DHT22;5598;48.648;8.908;2023-03-23T12:19:30;15.80;87.80
11089;DHT22;5598;48.648;8.908;2023-03-23T12:22:04;15.90;89.20
11089;DHT22;5598;48.648;8.908;2023-03-23T12:24:45;15.80;87.80
11089;DHT22;5598;48.648;8.908;2023-03-23T12:27:19;15.80;90.10
11089;DHT22;5598;48.648;8.908;2023-03-23T12:30:04;15.90;89.50
11089;DHT22;5598;48.648;8.908;2023-03-23T12:32:58;16.10;89.10
11089;DHT22;5598;48.648;8.908;2023-03-23T12:35:33;16.60;86.40
11089;DHT22;5598;48.648;8.908;2023-03-23T12:38:16;17.10;87.20
11089;DHT22;5598;48.648;8.908;2023-03-23T12:41:02;17.30;85.90
11089;DHT22;5598;48.648;8.908;2023-03-23T12:43:38;17.30;85.00
11089;DHT22;5598;48.648;8.908;2023-03-23T12:46:17;17.00;85.70
11089;DHT22;5598;48.648;8.908;2023-03-23T12:48:52;16.80;86.40
11089;DHT22;5598;48.648;8.908;2023-03-23T12:51:26;16.80;86.00
11089;DHT22;5598;48.648;8.908;2023-03-23T12:53:58;16.80;85.50
11089;DHT22;5598;48.648;8.908;2023-03-23T12:56:32;16.90;86.80
11089;DHT22;5598;48.648;8.908;2023-03-23T12:59:06;17.10;86.70
11089;DHT22;5598;48.648;8.908;2023-03-23T13:01:41;17.20;84.70
11089;DHT22;5598;48.648;8.908;2023-03-23T13:04:11;17.30;85.40
11089;DHT22;5598;48.648;8.908;2023-03-23T13:06:42;17.30;83.70
11089;DHT22;5598;48.648;8.908;2023-03-23T13:09:14;17.30;83.30
11089;DHT22;5598;48.648;8.908;2023-03-23T13:11:42;17.10;83.40
11089;DHT22;5598;48.648;8.908;2023-03-23T13:14:19;17.10;83.70
11089;DHT22;5598;48.648;8.908;2023-03-23T13:16:55;17.40;83.80
11089;DHT22;5598;48.648;8.908;2023-03-23T13:19:30;17.50;82.90
11089;DHT22;5598;48.648;8.908;2023-03-23T13:22:05;17.40;82.40
11089;DHT22;5598;48.648;8.908;2023-03-23T13:24:38;17.50;82.40
11089;DHT22;5598;48.648;8.908;2023-03-23T13:27:08;17.50;83.10
11089;DHT22;5598;48.648;8.908;2023-03-23T13:29:43;17.50;82.80
11089;DHT22;5598;48.648;8.908;2023-03-23T13:32:15;17.60;83.80
11089;DHT22;5598;48.648;8.908;2023-03-23T13:34:43;17.50;83.40
11089;DHT22;5598;48.648;8.908;2023-03-23T13:37:23;17.80;82.70
11089;DHT22;5598;48.648;8.908;2023-03-23T13:39:53;18.00;82.20
11089;DHT22;5598;48.648;8.908;2023-03-23T13:42:23;18.10;83.10
11089;DHT22;5598;48.648;8.908;2023-03-23T13:45:06;18.30;81.80
11089;DHT22;5598;48.648;8.908;2023-03-23T13:47:41;18.40;81.90
11089;DHT22;5598;48.648;8.908;2023-03-23T13:50:26;18.40;81.60
11089;DHT22;5598;48.648;8.908;2023-03-23T13:52:58;18.50;81.50
11089;DHT22;5598;48.648;8.908;2023-03-23T13:55:42;18.30;81.50
11089;DHT22;5598;48.648;8.908;2023-03-23T13:58:11;18.10;80.30
11089;DHT22;5598;48.648;8.908;2023-03-23T14:00:46;18.00;79.50
11089;DHT22;5598;48.648;8.908;2023-03-23T14:03:18;17.90;80.20
11089;DHT22;5598;48.648;8.908;2023-03-23T14:05:49;17.60;80.10
11089;DHT22;5598;48.648;8.908;2023-03-23T14:08:24;17.30;81.20
11089;DHT22;5598;48.648;8.908;2023-03-23T14:11:10;17.10;81.60
11089;DHT22;5598;48.648;8.908;2023-03-23T14:13:43;16.90;81.00
11089;DHT22;5598;48.648;8.908;2023-03-23T14:16:16;16.70;81.20
11089;DHT22;5598;48.648;8.908;2023-03-23T14:18:53;16.70;81.60
11089;DHT22;5598;48.648;8.908;2023-03-23T14:21:32;16.70;81.90
11089;DHT22;5598;48.648;8.908;2023-03-23T14:24:01;16.70;81.70
11089;DHT22;5598;48.648;8.908;2023-03-23T14:26:28;16.70;82.00
11089;DHT22;5598;48.648;8.908;2023-03-23T14:28:55;16.70;81.50
11089;DHT22;5598;48.648;8.908;2023-03-23T14:31:23;16.70;80.80
11089;DHT22;5598;48.648;8.908;2023-03-23T14:33:54;16.70;81.90
11089;DHT22;5598;48.648;8.908;2023-03-23T14:36:22;16.60;82.00
11089;DHT22;5598;48.648;8.908;2023-03-23T14:38:58;16.70;80.60
11089;DHT22;5598;48.648;8.908;2023-03-23T14:41:29;16.60;80.40
11089;DHT22;5598;48.648;8.908;2023-03-23T14:43:56;16.60;80.30
11089;DHT22;5598;48.648;8.908;2023-03-23T14:46:24;16.60;80.80
11089;DHT22;5598;48.648;8.908;2023-03-23T14:48:52;16.60;80.40
11089;DHT22;5598;48.648;8.908;2023-03-23T14:51:20;16.60;80.60
11089;DHT22;5598;48.648;8.908;2023-03-23T14:53:47;16.60;80.10
11089;DHT22;5598;48.648;8.908;2023-03-23T14:56:18;16.50;80.30
11089;DHT22;5598;48.648;8.908;2023-03-23T14:58:46;16.60;80.20
11089;DHT22;5598;48.648;8.908;2023-03-23T15:01:16;16.50;78.40
11089;DHT22;5598;48.648;8.908;2023-03-23T15:03:51;16.50;78.30
11089;DHT22;5598;48.648;8.908;2023-03-23T15:06:21;16.40;78.10
11089;DHT22;5598;48.648;8.908;2023-03-23T15:08:50;16.30;79.40
11089;DHT22;5598;48.648;8.908;2023-03-23T15:11:25;16.30;79.00
11089;DHT22;5598;48.648;8.908;2023-03-23T15:13:55;16.30;80.70
11089;DHT22;5598;48.648;8.908;2023-03-23T15:16:27;16.40;79.50
11089;DHT22;5598;48.648;8.908;2023-03-23T15:18:56;16.30;78.40
11089;DHT22;5598;48.648;8.908;2023-03-23T15:21:28;16.30;79.10
11089;DHT22;5598;48.648;8.908;2023-03-23T15:23:56;16.20;79.40
11089;DHT22;5598;48.648;8.908;2023-03-23T15:26:32;16.30;78.70
11089;DHT22;5598;48.648;8.908;2023-03-23T15:29:16;16.20;79.20
11089;DHT22;5598;48.648;8.908;2023-03-23T15:31:46;16.20;80.00
11089;DHT22;5598;48.648;8.908;2023-03-23T15:34:24;16.20;79.00
11089;DHT22;5598;48.648;8.908;2023-03-23T15:36:56;16.10;79.10
11089;DHT22;5598;48.648;8.908;2023-03-23T15:39:23;16.00;79.00
11089;DHT22;5598;48.648;8.908;2023-03-23T15:41:52;16.00;79.70
11089;DHT22;5598;48.648;8.908;2023-03-23T15:44:29;16.00;79.80
11089;DHT22;5598;48.648;8.908;2023-03-23T15:47:12;15.90;79.40
11089;DHT22;5598;48.648;8.908;2023-03-23T15:49:40;15.90;80.30
11089;DHT22;5598;48.648;8.908;2023-03-23T15:52:10;15.80;79.50
11089;DHT22;5598;48.648;8.908;2023-03-23T15:54:40;15.80;79.90
11089;DHT22;5598;48.648;8.908;2023-03-23T15:57:12;15.80;80.60
11089;DHT22;5598;48.648;8.908;2023-03-23T15:59:38;15.80;81.00
11089;DHT22;5598;48.648;8.908;2023-03-23T16:02:05;15.70;80.40
11089;DHT22;5598;48.648;8.908;2023-03-23T16:04:32;15.60;80.40
11089;DHT22;5598;48.648;8.908;2023-03-23T16:06:59;15.60;81.20
11089;DHT22;5598;48.648;8.908;2023-03-23T16:09:27;15.60;80.30